Current Weather

General Rodolfo Sanchez Taboa

General Rodolfo Sanchez Taboa, Mexico (MMML)

Report from: Sunday, June 26, 2022 11:45 AM CDT
Current time: Sunday, June 26, 2022 12:22 PM CDT

Nearby weather
Weather history
Weather forecast

Temperature34.0°C (93.2°F)
Heat index35.8°C (96.4°F)
Dew point19.0°C (66.2°F)
Winds 8 kts (4.1 m/s, 9.2 mph) South (170°)
Visibility10 mi. (16.1 km)
Clouds Sky clear
Altimeter29.93 in.Hg (1014 mB)
Relative humidity41 %
Density altitude2,449 ft. (747 m)
Flight conditions Visual Meteorological Conditions
Raw dataMMML 261645Z 17008KT 10SM SKC 34/19 A2993
An error has occurred. This application may no longer respond until reloaded. Reload 🗙